sensor_id;sensor_type;location;lat;lon;timestamp;temperature;humidity
2190;DHT22;1101;51.056;7.262;2022-07-15T00:00:20;15.90;69.50
2190;DHT22;1101;51.056;7.262;2022-07-15T00:02:48;15.90;69.60
2190;DHT22;1101;51.056;7.262;2022-07-15T00:05:17;15.80;69.60
2190;DHT22;1101;51.056;7.262;2022-07-15T00:07:45;15.80;69.70
2190;DHT22;1101;51.056;7.262;2022-07-15T00:10:13;15.70;69.90
2190;DHT22;1101;51.056;7.262;2022-07-15T00:12:41;15.80;70.00
2190;DHT22;1101;51.056;7.262;2022-07-15T00:15:09;15.70;69.90
2190;DHT22;1101;51.056;7.262;2022-07-15T00:17:38;15.70;69.90
2190;DHT22;1101;51.056;7.262;2022-07-15T00:20:07;15.70;69.90
2190;DHT22;1101;51.056;7.262;2022-07-15T00:22:37;15.70;70.00
2190;DHT22;1101;51.056;7.262;2022-07-15T00:25:06;15.60;70.00
2190;DHT22;1101;51.056;7.262;2022-07-15T00:27:34;15.60;70.10
2190;DHT22;1101;51.056;7.262;2022-07-15T00:30:03;15.60;70.20
2190;DHT22;1101;51.056;7.262;2022-07-15T00:32:31;15.60;70.30
2190;DHT22;1101;51.056;7.262;2022-07-15T00:34:59;15.50;70.20
2190;DHT22;1101;51.056;7.262;2022-07-15T00:37:27;15.50;70.30
2190;DHT22;1101;51.056;7.262;2022-07-15T00:39:56;15.50;70.30
2190;DHT22;1101;51.056;7.262;2022-07-15T00:42:24;15.40;70.30
2190;DHT22;1101;51.056;7.262;2022-07-15T00:45:09;15.30;70.30
2190;DHT22;1101;51.056;7.262;2022-07-15T00:47:37;15.30;70.50
2190;DHT22;1101;51.056;7.262;2022-07-15T00:50:06;15.30;70.60
2190;DHT22;1101;51.056;7.262;2022-07-15T00:52:35;15.20;70.60
2190;DHT22;1101;51.056;7.262;2022-07-15T00:55:09;15.20;70.80
2190;DHT22;1101;51.056;7.262;2022-07-15T00:57:38;15.10;70.80
2190;DHT22;1101;51.056;7.262;2022-07-15T01:00:13;15.10;70.90
2190;DHT22;1101;51.056;7.262;2022-07-15T01:02:43;15.00;70.80
2190;DHT22;1101;51.056;7.262;2022-07-15T01:05:18;15.00;70.90
2190;DHT22;1101;51.056;7.262;2022-07-15T01:07:47;14.90;71.00
2190;DHT22;1101;51.056;7.262;2022-07-15T01:10:18;14.90;71.10
2190;DHT22;1101;51.056;7.262;2022-07-15T01:12:47;14.80;71.00
2190;DHT22;1101;51.056;7.262;2022-07-15T01:15:15;14.80;71.20
2190;DHT22;1101;51.056;7.262;2022-07-15T01:17:44;14.70;71.30
2190;DHT22;1101;51.056;7.262;2022-07-15T01:20:12;14.70;71.40
2190;DHT22;1101;51.056;7.262;2022-07-15T01:22:42;14.70;71.50
2190;DHT22;1101;51.056;7.262;2022-07-15T01:25:10;14.60;71.50
2190;DHT22;1101;51.056;7.262;2022-07-15T01:27:38;14.60;71.60
2190;DHT22;1101;51.056;7.262;2022-07-15T01:30:08;14.50;71.60
2190;DHT22;1101;51.056;7.262;2022-07-15T01:32:38;14.50;71.70
2190;DHT22;1101;51.056;7.262;2022-07-15T01:35:06;14.50;71.80
2190;DHT22;1101;51.056;7.262;2022-07-15T01:37:34;14.40;71.80
2190;DHT22;1101;51.056;7.262;2022-07-15T01:40:05;14.50;71.90
2190;DHT22;1101;51.056;7.262;2022-07-15T01:42:33;14.40;71.90
2190;DHT22;1101;51.056;7.262;2022-07-15T01:45:06;14.40;72.00
2190;DHT22;1101;51.056;7.262;2022-07-15T01:47:36;14.30;72.10
2190;DHT22;1101;51.056;7.262;2022-07-15T01:50:08;14.30;72.00
2190;DHT22;1101;51.056;7.262;2022-07-15T01:52:35;14.20;72.10
2190;DHT22;1101;51.056;7.262;2022-07-15T01:55:06;14.20;72.20
2190;DHT22;1101;51.056;7.262;2022-07-15T01:57:35;14.20;72.30
2190;DHT22;1101;51.056;7.262;2022-07-15T02:00:05;14.10;72.20
2190;DHT22;1101;51.056;7.262;2022-07-15T02:02:33;14.10;72.30
2190;DHT22;1101;51.056;7.262;2022-07-15T02:05:02;14.00;72.30
2190;DHT22;1101;51.056;7.262;2022-07-15T02:07:30;14.10;72.50
2190;DHT22;1101;51.056;7.262;2022-07-15T02:09:58;14.00;72.40
2190;DHT22;1101;51.056;7.262;2022-07-15T02:12:55;14.00;72.50
2190;DHT22;1101;51.056;7.262;2022-07-15T02:15:23;13.90;72.50
2190;DHT22;1101;51.056;7.262;2022-07-15T02:17:50;13.90;72.70
2190;DHT22;1101;51.056;7.262;2022-07-15T02:20:18;13.90;72.80
2190;DHT22;1101;51.056;7.262;2022-07-15T02:22:46;13.90;72.90
2190;DHT22;1101;51.056;7.262;2022-07-15T02:25:14;13.90;73.00
2190;DHT22;1101;51.056;7.262;2022-07-15T02:27:42;13.90;73.00
2190;DHT22;1101;51.056;7.262;2022-07-15T02:30:11;13.80;72.90
2190;DHT22;1101;51.056;7.262;2022-07-15T02:32:39;13.80;72.90
2190;DHT22;1101;51.056;7.262;2022-07-15T02:35:07;13.80;73.00
2190;DHT22;1101;51.056;7.262;2022-07-15T02:37:35;13.80;73.10
2190;DHT22;1101;51.056;7.262;2022-07-15T02:40:31;13.80;73.10
2190;DHT22;1101;51.056;7.262;2022-07-15T02:43:01;13.80;73.20
2190;DHT22;1101;51.056;7.262;2022-07-15T02:45:34;13.70;73.20
2190;DHT22;1101;51.056;7.262;2022-07-15T02:48:03;13.80;73.30
2190;DHT22;1101;51.056;7.262;2022-07-15T02:50:31;13.70;73.40
2190;DHT22;1101;51.056;7.262;2022-07-15T02:53:00;13.70;73.40
2190;DHT22;1101;51.056;7.262;2022-07-15T02:55:30;13.80;73.60
2190;DHT22;1101;51.056;7.262;2022-07-15T02:57:58;13.80;73.50
2190;DHT22;1101;51.056;7.262;2022-07-15T03:00:27;13.80;73.50
2190;DHT22;1101;51.056;7.262;2022-07-15T03:02:56;13.80;73.50
2190;DHT22;1101;51.056;7.262;2022-07-15T03:05:24;13.80;73.50
2190;DHT22;1101;51.056;7.262;2022-07-15T03:07:52;13.80;73.70
2190;DHT22;1101;51.056;7.262;2022-07-15T03:10:21;13.80;73.70
2190;DHT22;1101;51.056;7.262;2022-07-15T03:12:48;13.80;73.80
2190;DHT22;1101;51.056;7.262;2022-07-15T03:15:16;13.80;73.90
2190;DHT22;1101;51.056;7.262;2022-07-15T03:17:44;13.80;73.90
2190;DHT22;1101;51.056;7.262;2022-07-15T03:20:13;13.80;74.00
2190;DHT22;1101;51.056;7.262;2022-07-15T03:22:41;13.90;74.10
2190;DHT22;1101;51.056;7.262;2022-07-15T03:25:11;13.90;74.10
2190;DHT22;1101;51.056;7.262;2022-07-15T03:27:39;13.90;74.20
2190;DHT22;1101;51.056;7.262;2022-07-15T03:30:08;13.90;74.30
2190;DHT22;1101;51.056;7.262;2022-07-15T03:32:36;13.90;74.40
2190;DHT22;1101;51.056;7.262;2022-07-15T03:35:05;13.90;74.40
2190;DHT22;1101;51.056;7.262;2022-07-15T03:37:36;13.90;74.50
2190;DHT22;1101;51.056;7.262;2022-07-15T03:40:05;13.90;74.40
2190;DHT22;1101;51.056;7.262;2022-07-15T03:42:33;13.90;74.50
2190;DHT22;1101;51.056;7.262;2022-07-15T03:45:01;13.90;74.60
2190;DHT22;1101;51.056;7.262;2022-07-15T03:47:28;13.90;74.80
2190;DHT22;1101;51.056;7.262;2022-07-15T03:49:56;14.00;74.90
2190;DHT22;1101;51.056;7.262;2022-07-15T03:52:24;14.00;74.90
2190;DHT22;1101;51.056;7.262;2022-07-15T03:54:53;14.00;75.10
2190;DHT22;1101;51.056;7.262;2022-07-15T03:57:21;14.00;75.00
2190;DHT22;1101;51.056;7.262;2022-07-15T03:59:51;14.10;75.10
2190;DHT22;1101;51.056;7.262;2022-07-15T04:02:19;14.10;75.20
2190;DHT22;1101;51.056;7.262;2022-07-15T04:04:47;14.10;75.00
2190;DHT22;1101;51.056;7.262;2022-07-15T04:07:15;14.10;75.00
2190;DHT22;1101;51.056;7.262;2022-07-15T04:09:43;14.20;75.10
2190;DHT22;1101;51.056;7.262;2022-07-15T04:12:12;14.20;75.10
2190;DHT22;1101;51.056;7.262;2022-07-15T04:14:43;14.20;75.10
2190;DHT22;1101;51.056;7.262;2022-07-15T04:17:11;14.20;75.20
2190;DHT22;1101;51.056;7.262;2022-07-15T04:19:40;14.20;75.20
2190;DHT22;1101;51.056;7.262;2022-07-15T04:22:07;14.30;75.40
2190;DHT22;1101;51.056;7.262;2022-07-15T04:24:35;14.30;75.40
2190;DHT22;1101;51.056;7.262;2022-07-15T04:27:03;14.30;75.40
2190;DHT22;1101;51.056;7.262;2022-07-15T04:29:33;14.40;75.60
2190;DHT22;1101;51.056;7.262;2022-07-15T04:32:02;14.50;75.70
2190;DHT22;1101;51.056;7.262;2022-07-15T04:34:31;14.50;75.60
2190;DHT22;1101;51.056;7.262;2022-07-15T04:36:59;14.50;75.70
2190;DHT22;1101;51.056;7.262;2022-07-15T04:39:26;14.60;75.70
2190;DHT22;1101;51.056;7.262;2022-07-15T04:41:55;14.60;75.60
2190;DHT22;1101;51.056;7.262;2022-07-15T04:44:23;14.70;76.30
2190;DHT22;1101;51.056;7.262;2022-07-15T04:46:52;14.70;75.50
2190;DHT22;1101;51.056;7.262;2022-07-15T04:49:21;14.80;75.60
2190;DHT22;1101;51.056;7.262;2022-07-15T04:52:06;14.80;75.50
2190;DHT22;1101;51.056;7.262;2022-07-15T04:54:34;14.80;75.50
2190;DHT22;1101;51.056;7.262;2022-07-15T04:57:02;14.90;75.60
2190;DHT22;1101;51.056;7.262;2022-07-15T04:59:31;14.90;76.20
2190;DHT22;1101;51.056;7.262;2022-07-15T05:02:00;14.90;75.60
2190;DHT22;1101;51.056;7.262;2022-07-15T05:04:29;15.00;75.70
2190;DHT22;1101;51.056;7.262;2022-07-15T05:06:57;15.00;75.80
2190;DHT22;1101;51.056;7.262;2022-07-15T05:09:25;15.00;75.90
2190;DHT22;1101;51.056;7.262;2022-07-15T05:11:53;15.10;76.00
2190;DHT22;1101;51.056;7.262;2022-07-15T05:14:21;15.10;75.60
2190;DHT22;1101;51.056;7.262;2022-07-15T05:16:49;15.20;75.60
2190;DHT22;1101;51.056;7.262;2022-07-15T05:19:19;15.20;75.60
2190;DHT22;1101;51.056;7.262;2022-07-15T05:21:46;15.30;76.10
2190;DHT22;1101;51.056;7.262;2022-07-15T05:24:14;15.30;75.50
2190;DHT22;1101;51.056;7.262;2022-07-15T05:26:55;15.30;75.30
2190;DHT22;1101;51.056;7.262;2022-07-15T05:29:23;15.40;75.40
2190;DHT22;1101;51.056;7.262;2022-07-15T05:31:51;15.40;75.30
2190;DHT22;1101;51.056;7.262;2022-07-15T05:34:20;15.50;75.70
2190;DHT22;1101;51.056;7.262;2022-07-15T05:36:48;15.50;75.50
2190;DHT22;1101;51.056;7.262;2022-07-15T05:39:16;15.50;75.30
2190;DHT22;1101;51.056;7.262;2022-07-15T05:41:44;15.60;75.40
2190;DHT22;1101;51.056;7.262;2022-07-15T05:44:14;15.60;75.30
2190;DHT22;1101;51.056;7.262;2022-07-15T05:46:46;15.70;75.30
2190;DHT22;1101;51.056;7.262;2022-07-15T05:49:13;15.70;75.80
2190;DHT22;1101;51.056;7.262;2022-07-15T05:51:43;15.70;75.40
2190;DHT22;1101;51.056;7.262;2022-07-15T05:54:11;15.70;75.20
2190;DHT22;1101;51.056;7.262;2022-07-15T05:56:41;15.80;75.20
2190;DHT22;1101;51.056;7.262;2022-07-15T05:59:09;15.90;75.20
2190;DHT22;1101;51.056;7.262;2022-07-15T06:01:37;15.90;75.10
2190;DHT22;1101;51.056;7.262;2022-07-15T06:04:05;15.90;75.00
2190;DHT22;1101;51.056;7.262;2022-07-15T06:06:33;16.00;75.40
2190;DHT22;1101;51.056;7.262;2022-07-15T06:09:02;15.90;75.00
2190;DHT22;1101;51.056;7.262;2022-07-15T06:11:30;15.90;74.90
2190;DHT22;1101;51.056;7.262;2022-07-15T06:14:00;15.90;74.80
2190;DHT22;1101;51.056;7.262;2022-07-15T06:16:29;16.00;74.70
2190;DHT22;1101;51.056;7.262;2022-07-15T06:18:57;16.00;74.50
2190;DHT22;1101;51.056;7.262;2022-07-15T06:21:25;16.00;74.40
2190;DHT22;1101;51.056;7.262;2022-07-15T06:23:54;16.00;74.20
2190;DHT22;1101;51.056;7.262;2022-07-15T06:26:23;16.00;74.00
2190;DHT22;1101;51.056;7.262;2022-07-15T06:28:50;16.10;74.10
2190;DHT22;1101;51.056;7.262;2022-07-15T06:31:18;16.10;74.10
2190;DHT22;1101;51.056;7.262;2022-07-15T06:33:46;16.10;73.90
2190;DHT22;1101;51.056;7.262;2022-07-15T06:36:14;16.20;73.90
2190;DHT22;1101;51.056;7.262;2022-07-15T06:38:42;16.20;73.90
2190;DHT22;1101;51.056;7.262;2022-07-15T06:41:10;16.30;73.80
2190;DHT22;1101;51.056;7.262;2022-07-15T06:43:39;16.40;73.90
2190;DHT22;1101;51.056;7.262;2022-07-15T06:46:09;16.40;73.40
2190;DHT22;1101;51.056;7.262;2022-07-15T06:48:37;16.50;73.20
2190;DHT22;1101;51.056;7.262;2022-07-15T06:51:06;16.50;73.20
2190;DHT22;1101;51.056;7.262;2022-07-15T06:53:34;16.60;73.10
2190;DHT22;1101;51.056;7.262;2022-07-15T06:56:03;16.60;73.00
2190;DHT22;1101;51.056;7.262;2022-07-15T06:58:32;16.70;72.90
2190;DHT22;1101;51.056;7.262;2022-07-15T07:01:01;16.80;72.80
2190;DHT22;1101;51.056;7.262;2022-07-15T07:03:30;16.90;72.80
2190;DHT22;1101;51.056;7.262;2022-07-15T07:06:18;17.00;72.70
2190;DHT22;1101;51.056;7.262;2022-07-15T07:08:46;17.10;72.70
2190;DHT22;1101;51.056;7.262;2022-07-15T07:11:14;17.30;72.70
2190;DHT22;1101;51.056;7.262;2022-07-15T07:13:45;17.40;72.50
2190;DHT22;1101;51.056;7.262;2022-07-15T07:16:14;17.50;72.20
2190;DHT22;1101;51.056;7.262;2022-07-15T07:18:42;17.60;72.00
2190;DHT22;1101;51.056;7.262;2022-07-15T07:21:13;17.70;72.10
2190;DHT22;1101;51.056;7.262;2022-07-15T07:23:41;17.70;71.80
2190;DHT22;1101;51.056;7.262;2022-07-15T07:26:10;17.80;71.80
2190;DHT22;1101;51.056;7.262;2022-07-15T07:28:38;17.90;71.70
2190;DHT22;1101;51.056;7.262;2022-07-15T07:31:07;17.90;71.40
2190;DHT22;1101;51.056;7.262;2022-07-15T07:33:37;17.80;71.20
2190;DHT22;1101;51.056;7.262;2022-07-15T07:36:05;17.80;71.10
2190;DHT22;1101;51.056;7.262;2022-07-15T07:38:35;17.70;71.30
2190;DHT22;1101;51.056;7.262;2022-07-15T07:41:03;17.70;71.50
2190;DHT22;1101;51.056;7.262;2022-07-15T07:43:31;17.80;71.60
2190;DHT22;1101;51.056;7.262;2022-07-15T07:46:01;18.00;71.60
2190;DHT22;1101;51.056;7.262;2022-07-15T07:48:29;18.20;71.50
2190;DHT22;1101;51.056;7.262;2022-07-15T07:51:01;18.30;72.00
2190;DHT22;1101;51.056;7.262;2022-07-15T07:53:57;18.30;69.90
2190;DHT22;1101;51.056;7.262;2022-07-15T07:56:24;18.30;70.20
2190;DHT22;1101;51.056;7.262;2022-07-15T07:58:52;18.40;70.30
2190;DHT22;1101;51.056;7.262;2022-07-15T08:01:20;18.60;70.60
2190;DHT22;1101;51.056;7.262;2022-07-15T08:03:48;18.70;70.30
2190;DHT22;1101;51.056;7.262;2022-07-15T08:06:18;18.80;70.20
2190;DHT22;1101;51.056;7.262;2022-07-15T08:08:46;18.90;70.10
2190;DHT22;1101;51.056;7.262;2022-07-15T08:11:13;19.00;69.90
2190;DHT22;1101;51.056;7.262;2022-07-15T08:13:42;19.20;69.80
2190;DHT22;1101;51.056;7.262;2022-07-15T08:16:10;19.30;69.70
2190;DHT22;1101;51.056;7.262;2022-07-15T08:18:37;19.40;69.60
2190;DHT22;1101;51.056;7.262;2022-07-15T08:21:06;19.60;69.20
2190;DHT22;1101;51.056;7.262;2022-07-15T08:23:35;19.60;68.60
2190;DHT22;1101;51.056;7.262;2022-07-15T08:26:03;19.50;67.70
2190;DHT22;1101;51.056;7.262;2022-07-15T08:28:38;19.20;67.30
2190;DHT22;1101;51.056;7.262;2022-07-15T08:31:26;19.00;67.60
2190;DHT22;1101;51.056;7.262;2022-07-15T08:33:54;18.90;67.70
2190;DHT22;1101;51.056;7.262;2022-07-15T08:36:21;18.80;67.00
2190;DHT22;1101;51.056;7.262;2022-07-15T08:38:51;18.70;67.60
2190;DHT22;1101;51.056;7.262;2022-07-15T08:41:19;18.60;67.70
2190;DHT22;1101;51.056;7.262;2022-07-15T08:43:47;18.60;67.90
2190;DHT22;1101;51.056;7.262;2022-07-15T08:46:15;18.50;68.00
2190;DHT22;1101;51.056;7.262;2022-07-15T08:48:49;18.50;67.40
2190;DHT22;1101;51.056;7.262;2022-07-15T08:51:21;18.50;68.00
2190;DHT22;1101;51.056;7.262;2022-07-15T08:53:52;18.50;68.00
2190;DHT22;1101;51.056;7.262;2022-07-15T08:56:21;18.50;67.80
2190;DHT22;1101;51.056;7.262;2022-07-15T08:58:49;18.60;68.10
2190;DHT22;1101;51.056;7.262;2022-07-15T09:01:26;18.80;68.30
2190;DHT22;1101;51.056;7.262;2022-07-15T09:03:54;18.90;68.10
2190;DHT22;1101;51.056;7.262;2022-07-15T09:06:33;18.80;67.50
2190;DHT22;1101;51.056;7.262;2022-07-15T09:09:25;18.80;67.40
2190;DHT22;1101;51.056;7.262;2022-07-15T09:11:58;18.70;67.30
2190;DHT22;1101;51.056;7.262;2022-07-15T09:14:39;18.60;67.20
2190;DHT22;1101;51.056;7.262;2022-07-15T09:17:22;18.60;67.70
2190;DHT22;1101;51.056;7.262;2022-07-15T09:20:04;18.90;68.30
2190;DHT22;1101;51.056;7.262;2022-07-15T09:22:50;19.20;67.60
2190;DHT22;1101;51.056;7.262;2022-07-15T09:25:20;19.30;67.50
2190;DHT22;1101;51.056;7.262;2022-07-15T09:27:48;19.30;67.40
2190;DHT22;1101;51.056;7.262;2022-07-15T09:30:19;19.40;67.20
2190;DHT22;1101;51.056;7.262;2022-07-15T09:33:07;19.40;66.90
2190;DHT22;1101;51.056;7.262;2022-07-15T09:35:54;19.50;67.90
2190;DHT22;1101;51.056;7.262;2022-07-15T09:38:36;19.80;67.50
2190;DHT22;1101;51.056;7.262;2022-07-15T09:41:10;20.10;67.10
2190;DHT22;1101;51.056;7.262;2022-07-15T09:43:47;20.10;66.50
2190;DHT22;1101;51.056;7.262;2022-07-15T09:46:16;20.20;66.60
2190;DHT22;1101;51.056;7.262;2022-07-15T09:48:47;20.20;65.20
2190;DHT22;1101;51.056;7.262;2022-07-15T09:51:16;20.10;65.20
2190;DHT22;1101;51.056;7.262;2022-07-15T09:53:44;20.00;65.60
2190;DHT22;1101;51.056;7.262;2022-07-15T09:56:16;19.80;65.50
2190;DHT22;1101;51.056;7.262;2022-07-15T09:58:47;19.80;66.10
2190;DHT22;1101;51.056;7.262;2022-07-15T10:01:16;20.00;66.60
2190;DHT22;1101;51.056;7.262;2022-07-15T10:03:44;20.10;66.20
2190;DHT22;1101;51.056;7.262;2022-07-15T10:06:14;20.10;65.90
2190;DHT22;1101;51.056;7.262;2022-07-15T10:08:46;20.10;66.00
2190;DHT22;1101;51.056;7.262;2022-07-15T10:11:16;20.10;65.60
2190;DHT22;1101;51.056;7.262;2022-07-15T10:14:01;20.10;65.50
2190;DHT22;1101;51.056;7.262;2022-07-15T10:19:46;19.90;65.40
2190;DHT22;1101;51.056;7.262;2022-07-15T10:22:30;19.90;65.70
2190;DHT22;1101;51.056;7.262;2022-07-15T10:25:18;19.90;66.00
2190;DHT22;1101;51.056;7.262;2022-07-15T10:27:58;19.90;65.90
2190;DHT22;1101;51.056;7.262;2022-07-15T10:30:28;19.90;66.10
2190;DHT22;1101;51.056;7.262;2022-07-15T10:33:10;20.00;65.90
2190;DHT22;1101;51.056;7.262;2022-07-15T10:35:43;20.00;66.10
2190;DHT22;1101;51.056;7.262;2022-07-15T10:38:24;20.10;65.70
2190;DHT22;1101;51.056;7.262;2022-07-15T10:41:03;20.10;66.00
2190;DHT22;1101;51.056;7.262;2022-07-15T10:43:44;20.10;65.90
2190;DHT22;1101;51.056;7.262;2022-07-15T10:46:21;20.00;66.20
2190;DHT22;1101;51.056;7.262;2022-07-15T10:48:52;20.20;67.30
2190;DHT22;1101;51.056;7.262;2022-07-15T10:51:43;20.50;66.40
2190;DHT22;1101;51.056;7.262;2022-07-15T10:54:38;20.80;66.20
2190;DHT22;1101;51.056;7.262;2022-07-15T10:57:06;21.00;65.20
2190;DHT22;1101;51.056;7.262;2022-07-15T10:59:47;21.10;65.10
2190;DHT22;1101;51.056;7.262;2022-07-15T11:02:17;21.20;65.10
2190;DHT22;1101;51.056;7.262;2022-07-15T11:04:45;21.40;65.10
2190;DHT22;1101;51.056;7.262;2022-07-15T11:07:27;21.40;64.90
2190;DHT22;1101;51.056;7.262;2022-07-15T11:10:14;21.50;64.90
2190;DHT22;1101;51.056;7.262;2022-07-15T11:13:04;21.50;64.80
2190;DHT22;1101;51.056;7.262;2022-07-15T11:15:34;21.60;65.40
2190;DHT22;1101;51.056;7.262;2022-07-15T11:18:03;21.70;64.90
2190;DHT22;1101;51.056;7.262;2022-07-15T11:20:37;21.90;65.10
2190;DHT22;1101;51.056;7.262;2022-07-15T11:23:09;22.00;64.90
2190;DHT22;1101;51.056;7.262;2022-07-15T11:25:47;22.00;64.40
2190;DHT22;1101;51.056;7.262;2022-07-15T11:28:15;21.80;64.70
2190;DHT22;1101;51.056;7.262;2022-07-15T11:30:47;21.80;65.50
2190;DHT22;1101;51.056;7.262;2022-07-15T11:33:21;21.70;64.30
2190;DHT22;1101;51.056;7.262;2022-07-15T11:35:53;21.70;64.80
2190;DHT22;1101;51.056;7.262;2022-07-15T11:38:23;21.90;65.10
2190;DHT22;1101;51.056;7.262;2022-07-15T11:40:54;22.10;64.10
2190;DHT22;1101;51.056;7.262;2022-07-15T11:43:40;22.10;64.20
2190;DHT22;1101;51.056;7.262;2022-07-15T11:46:29;22.30;64.50
2190;DHT22;1101;51.056;7.262;2022-07-15T11:48:58;22.60;64.10
2190;DHT22;1101;51.056;7.262;2022-07-15T11:51:27;22.70;63.90
2190;DHT22;1101;51.056;7.262;2022-07-15T11:53:58;22.70;63.70
2190;DHT22;1101;51.056;7.262;2022-07-15T11:56:26;22.70;63.60
2190;DHT22;1101;51.056;7.262;2022-07-15T11:58:55;22.60;63.40
2190;DHT22;1101;51.056;7.262;2022-07-15T12:01:27;22.60;63.10
2190;DHT22;1101;51.056;7.262;2022-07-15T12:03:57;22.50;63.20
2190;DHT22;1101;51.056;7.262;2022-07-15T12:06:28;22.50;63.30
2190;DHT22;1101;51.056;7.262;2022-07-15T12:08:57;22.60;63.40
2190;DHT22;1101;51.056;7.262;2022-07-15T12:11:27;22.50;63.30
2190;DHT22;1101;51.056;7.262;2022-07-15T12:13:57;22.60;63.40
2190;DHT22;1101;51.056;7.262;2022-07-15T12:16:29;22.70;63.30
2190;DHT22;1101;51.056;7.262;2022-07-15T12:19:00;22.80;62.50
2190;DHT22;1101;51.056;7.262;2022-07-15T12:21:29;22.90;63.20
2190;DHT22;1101;51.056;7.262;2022-07-15T12:24:04;23.10;63.00
2190;DHT22;1101;51.056;7.262;2022-07-15T12:26:34;23.20;63.00
2190;DHT22;1101;51.056;7.262;2022-07-15T12:29:07;23.30;62.70
2190;DHT22;1101;51.056;7.262;2022-07-15T12:31:38;23.30;62.70
2190;DHT22;1101;51.056;7.262;2022-07-15T12:34:07;23.40;62.90
2190;DHT22;1101;51.056;7.262;2022-07-15T12:36:35;23.50;63.00
2190;DHT22;1101;51.056;7.262;2022-07-15T12:39:13;23.60;62.70
2190;DHT22;1101;51.056;7.262;2022-07-15T12:41:59;23.70;62.00
2190;DHT22;1101;51.056;7.262;2022-07-15T12:44:29;23.70;62.20
2190;DHT22;1101;51.056;7.262;2022-07-15T12:47:04;23.80;62.50
2190;DHT22;1101;51.056;7.262;2022-07-15T12:49:41;23.80;62.30
2190;DHT22;1101;51.056;7.262;2022-07-15T12:52:24;23.90;62.00
2190;DHT22;1101;51.056;7.262;2022-07-15T12:54:54;23.90;61.20
2190;DHT22;1101;51.056;7.262;2022-07-15T12:57:27;23.70;60.70
2190;DHT22;1101;51.056;7.262;2022-07-15T12:59:57;23.50;60.90
2190;DHT22;1101;51.056;7.262;2022-07-15T13:02:27;23.30;61.20
2190;DHT22;1101;51.056;7.262;2022-07-15T13:04:55;23.20;61.30
2190;DHT22;1101;51.056;7.262;2022-07-15T13:07:23;23.10;61.50
2190;DHT22;1101;51.056;7.262;2022-07-15T13:09:51;23.00;61.20
2190;DHT22;1101;51.056;7.262;2022-07-15T13:12:19;22.80;60.60
2190;DHT22;1101;51.056;7.262;2022-07-15T13:14:46;22.60;61.10
2190;DHT22;1101;51.056;7.262;2022-07-15T13:17:14;22.40;61.50
2190;DHT22;1101;51.056;7.262;2022-07-15T13:19:44;22.40;62.10
2190;DHT22;1101;51.056;7.262;2022-07-15T13:22:11;22.30;63.00
2190;DHT22;1101;51.056;7.262;2022-07-15T13:24:39;22.30;62.00
2190;DHT22;1101;51.056;7.262;2022-07-15T13:27:07;22.30;62.00
2190;DHT22;1101;51.056;7.262;2022-07-15T13:29:35;22.30;62.10
2190;DHT22;1101;51.056;7.262;2022-07-15T13:32:03;22.20;62.10
2190;DHT22;1101;51.056;7.262;2022-07-15T13:34:31;22.20;62.10
2190;DHT22;1101;51.056;7.262;2022-07-15T13:37:00;22.20;62.40
2190;DHT22;1101;51.056;7.262;2022-07-15T13:39:29;22.30;62.40
2190;DHT22;1101;51.056;7.262;2022-07-15T13:41:57;22.30;62.60
2190;DHT22;1101;51.056;7.262;2022-07-15T13:44:24;22.40;62.70
2190;DHT22;1101;51.056;7.262;2022-07-15T13:46:52;22.40;62.80
2190;DHT22;1101;51.056;7.262;2022-07-15T13:49:20;22.40;62.70
2190;DHT22;1101;51.056;7.262;2022-07-15T13:52:10;22.50;63.00
2190;DHT22;1101;51.056;7.262;2022-07-15T13:54:37;22.80;63.40
2190;DHT22;1101;51.056;7.262;2022-07-15T13:57:06;22.90;62.20
2190;DHT22;1101;51.056;7.262;2022-07-15T13:59:34;22.90;62.50
2190;DHT22;1101;51.056;7.262;2022-07-15T14:02:02;23.00;62.50
2190;DHT22;1101;51.056;7.262;2022-07-15T14:04:31;23.10;62.00
2190;DHT22;1101;51.056;7.262;2022-07-15T14:06:59;23.10;61.80
2190;DHT22;1101;51.056;7.262;2022-07-15T14:09:30;23.10;62.10
2190;DHT22;1101;51.056;7.262;2022-07-15T14:11:58;23.30;62.20
2190;DHT22;1101;51.056;7.262;2022-07-15T14:14:26;23.40;62.00
2190;DHT22;1101;51.056;7.262;2022-07-15T14:16:53;23.40;61.90
2190;DHT22;1101;51.056;7.262;2022-07-15T14:19:22;23.50;62.10
2190;DHT22;1101;51.056;7.262;2022-07-15T14:21:50;23.50;61.80
2190;DHT22;1101;51.056;7.262;2022-07-15T14:24:20;23.40;61.20
2190;DHT22;1101;51.056;7.262;2022-07-15T14:26:49;23.30;61.60
2190;DHT22;1101;51.056;7.262;2022-07-15T14:29:17;23.30;61.70
2190;DHT22;1101;51.056;7.262;2022-07-15T14:31:45;23.20;61.30
2190;DHT22;1101;51.056;7.262;2022-07-15T14:34:17;23.10;61.10
2190;DHT22;1101;51.056;7.262;2022-07-15T14:36:46;23.00;60.90
2190;DHT22;1101;51.056;7.262;2022-07-15T14:39:34;22.90;61.30
2190;DHT22;1101;51.056;7.262;2022-07-15T14:42:03;22.90;61.30
2190;DHT22;1101;51.056;7.262;2022-07-15T14:44:31;22.90;61.50
2190;DHT22;1101;51.056;7.262;2022-07-15T14:46:59;22.90;61.50
2190;DHT22;1101;51.056;7.262;2022-07-15T14:49:28;22.90;61.70
2190;DHT22;1101;51.056;7.262;2022-07-15T14:51:56;23.10;62.00
2190;DHT22;1101;51.056;7.262;2022-07-15T14:54:24;23.30;61.90
2190;DHT22;1101;51.056;7.262;2022-07-15T14:56:54;23.50;61.90
2190;DHT22;1101;51.056;7.262;2022-07-15T14:59:23;23.80;61.30
2190;DHT22;1101;51.056;7.262;2022-07-15T15:01:51;23.90;60.70
2190;DHT22;1101;51.056;7.262;2022-07-15T15:04:20;23.90;60.30
2190;DHT22;1101;51.056;7.262;2022-07-15T15:06:50;23.90;59.90
2190;DHT22;1101;51.056;7.262;2022-07-15T15:09:18;23.80;59.70
2190;DHT22;1101;51.056;7.262;2022-07-15T15:11:45;23.90;59.50
2190;DHT22;1101;51.056;7.262;2022-07-15T15:14:13;23.90;59.70
2190;DHT22;1101;51.056;7.262;2022-07-15T15:16:42;24.00;60.10
2190;DHT22;1101;51.056;7.262;2022-07-15T15:19:29;24.20;59.90
2190;DHT22;1101;51.056;7.262;2022-07-15T15:21:57;24.20;59.30
2190;DHT22;1101;51.056;7.262;2022-07-15T15:24:25;24.20;59.30
2190;DHT22;1101;51.056;7.262;2022-07-15T15:26:53;24.20;59.40
2190;DHT22;1101;51.056;7.262;2022-07-15T15:29:21;24.30;59.60
2190;DHT22;1101;51.056;7.262;2022-07-15T15:31:50;24.40;59.70
2190;DHT22;1101;51.056;7.262;2022-07-15T15:34:18;24.60;60.10
2190;DHT22;1101;51.056;7.262;2022-07-15T15:36:47;24.80;60.00
2190;DHT22;1101;51.056;7.262;2022-07-15T15:39:15;25.00;59.70
2190;DHT22;1101;51.056;7.262;2022-07-15T15:41:43;25.20;59.60
2190;DHT22;1101;51.056;7.262;2022-07-15T15:44:11;25.20;59.50
2190;DHT22;1101;51.056;7.262;2022-07-15T15:46:40;25.40;59.60
2190;DHT22;1101;51.056;7.262;2022-07-15T15:49:09;25.60;59.40
2190;DHT22;1101;51.056;7.262;2022-07-15T15:51:37;25.70;59.20
2190;DHT22;1101;51.056;7.262;2022-07-15T15:54:05;25.60;58.80
2190;DHT22;1101;51.056;7.262;2022-07-15T15:56:33;25.50;58.70
2190;DHT22;1101;51.056;7.262;2022-07-15T15:59:01;25.40;58.40
2190;DHT22;1101;51.056;7.262;2022-07-15T16:01:29;25.20;58.50
2190;DHT22;1101;51.056;7.262;2022-07-15T16:03:57;25.10;58.30
2190;DHT22;1101;51.056;7.262;2022-07-15T16:06:26;24.90;58.00
2190;DHT22;1101;51.056;7.262;2022-07-15T16:08:54;24.80;58.60
2190;DHT22;1101;51.056;7.262;2022-07-15T16:11:23;24.60;58.50
2190;DHT22;1101;51.056;7.262;2022-07-15T16:13:50;24.50;58.70
2190;DHT22;1101;51.056;7.262;2022-07-15T16:16:18;24.50;58.40
2190;DHT22;1101;51.056;7.262;2022-07-15T16:18:47;24.50;58.90
2190;DHT22;1101;51.056;7.262;2022-07-15T16:21:15;24.60;59.40
2190;DHT22;1101;51.056;7.262;2022-07-15T16:24:05;24.70;59.50
2190;DHT22;1101;51.056;7.262;2022-07-15T16:26:32;24.80;59.30